createdAt,value
2022-10-12T00:02:16.769Z,17.6
2022-10-12T00:07:22.075Z,17.6
2022-10-12T00:12:27.495Z,17.6
2022-10-12T00:17:32.649Z,17.6
2022-10-12T00:22:37.810Z,17.5
2022-10-12T00:27:43.225Z,17.6
2022-10-12T00:32:48.650Z,17.5
2022-10-12T00:37:54.090Z,17.6
2022-10-12T00:42:59.515Z,17.5
2022-10-12T00:48:04.960Z,17.5
2022-10-12T00:53:10.132Z,17.5
2022-10-12T00:58:15.569Z,17.5
2022-10-12T01:03:20.986Z,17.5
2022-10-12T01:08:25.890Z,17.4
2022-10-12T01:13:31.294Z,17.5
2022-10-12T01:18:36.455Z,17.4
2022-10-12T01:23:41.897Z,17.4
2022-10-12T01:28:47.480Z,17.4
2022-10-12T01:33:52.963Z,17.4
2022-10-12T01:38:58.417Z,17.4
2022-10-12T01:44:03.815Z,17.4
2022-10-12T01:49:09.231Z,17.4
2022-10-12T01:54:14.107Z,17.4
2022-10-12T01:59:19.520Z,17.4
2022-10-12T02:04:24.653Z,17.4
2022-10-12T02:09:30.106Z,17.4
2022-10-12T02:14:35.557Z,17.4
2022-10-12T02:19:40.703Z,17.4
2022-10-12T02:24:46.134Z,17.4
2022-10-12T02:29:51.548Z,17.4
2022-10-12T02:34:56.968Z,17.4
2022-10-12T02:40:02.145Z,17.3
2022-10-12T02:45:07.562Z,17.3
2022-10-12T02:50:12.455Z,17.3
2022-10-12T02:55:17.630Z,17.3
2022-10-12T03:00:23.066Z,17.3
2022-10-12T03:05:28.257Z,17.3
2022-10-12T03:10:33.448Z,17.3
2022-10-12T03:15:38.852Z,17.3
2022-10-12T03:20:44.001Z,17.3
2022-10-12T03:25:49.180Z,17.3
2022-10-12T03:30:54.589Z,17.2
2022-10-12T03:36:00.029Z,17.2
2022-10-12T03:41:06.800Z,17.3
2022-10-12T03:46:12.377Z,17.3
2022-10-12T03:51:17.779Z,17.3
2022-10-12T03:56:22.676Z,17.3
2022-10-12T04:01:28.113Z,17.3
2022-10-12T04:06:33.375Z,17.2
2022-10-12T04:11:38.815Z,17.3
2022-10-12T04:16:44.228Z,17.3
2022-10-12T04:21:49.355Z,17.2
2022-10-12T04:26:54.530Z,17.2
2022-10-12T04:32:00.024Z,17.2
2022-10-12T04:37:04.913Z,17.2
2022-10-12T04:42:10.087Z,17.2
2022-10-12T04:47:15.524Z,17.2
2022-10-12T04:52:20.913Z,17.2
2022-10-12T04:57:26.357Z,17.2
2022-10-12T05:02:31.762Z,17.1
2022-10-12T05:07:37.170Z,17.1
2022-10-12T05:12:43.219Z,17.1
2022-10-12T05:17:48.638Z,17.1
2022-10-12T05:22:54.055Z,17
2022-10-12T05:27:59.405Z,17
2022-10-12T05:33:04.886Z,17
2022-10-12T05:38:10.052Z,17
2022-10-12T05:43:15.487Z,17
2022-10-12T05:48:20.898Z,16.9
2022-10-12T05:53:26.033Z,17
2022-10-12T05:58:31.196Z,17
2022-10-12T06:03:36.615Z,16.9
2022-10-12T06:08:41.789Z,16.9
2022-10-12T06:13:47.231Z,16.9
2022-10-12T06:18:52.645Z,16.9
2022-10-12T06:23:58.041Z,16.9
2022-10-12T06:29:02.934Z,16.9
2022-10-12T06:34:08.326Z,16.8
2022-10-12T06:39:13.493Z,16.8
2022-10-12T06:44:18.941Z,16.8
2022-10-12T06:49:24.360Z,16.9
2022-10-12T06:54:29.502Z,16.9
2022-10-12T06:59:34.681Z,16.9
2022-10-12T07:04:40.085Z,17
2022-10-12T07:09:45.241Z,17
2022-10-12T07:14:50.674Z,17
2022-10-12T07:19:56.091Z,17
2022-10-12T07:25:01.514Z,17
2022-10-12T07:30:06.754Z,17
2022-10-12T07:35:12.141Z,17
2022-10-12T07:40:17.574Z,17.1
2022-10-12T07:45:23.015Z,17.1
2022-10-12T07:50:28.461Z,17.1
2022-10-12T07:55:33.879Z,17.1
2022-10-12T08:00:39.063Z,17.1
2022-10-12T08:05:44.501Z,17.1
2022-10-12T08:10:49.635Z,17
2022-10-12T08:15:55.069Z,17
2022-10-12T08:21:00.488Z,17.1
2022-10-12T08:26:05.595Z,17.1
2022-10-12T08:31:10.807Z,17.2
2022-10-12T08:36:16.386Z,17.2
2022-10-12T08:41:21.296Z,17.2
2022-10-12T08:46:26.822Z,17.2
2022-10-12T08:51:32.256Z,17.2
2022-10-12T08:56:37.120Z,17.3
2022-10-12T09:01:42.366Z,17.3
2022-10-12T09:06:47.868Z,17.4
2022-10-12T09:11:53.041Z,17.4
2022-10-12T09:16:58.223Z,17.4
2022-10-12T09:22:03.629Z,17.5
2022-10-12T09:27:09.045Z,17.5
2022-10-12T09:32:14.204Z,17.5
2022-10-12T09:37:19.601Z,17.6
2022-10-12T09:42:24.740Z,17.6
2022-10-12T09:47:29.911Z,17.7
2022-10-12T09:52:35.413Z,17.8
2022-10-12T09:57:40.543Z,17.7
2022-10-12T10:02:45.702Z,17.7
2022-10-12T10:07:51.114Z,17.7
2022-10-12T10:12:56.552Z,17.9
2022-10-12T10:18:02.042Z,18
2022-10-12T10:23:07.465Z,18
2022-10-12T10:28:12.698Z,18.1
2022-10-12T10:33:18.253Z,18.1
2022-10-12T10:38:23.682Z,18.2
2022-10-12T10:43:29.101Z,18.2
2022-10-12T10:48:34.540Z,18.1
2022-10-12T10:53:39.954Z,18.2
2022-10-12T10:58:45.106Z,18.2
2022-10-12T11:03:52.131Z,18.3
2022-10-12T11:08:58.045Z,18.3
2022-10-12T11:14:03.483Z,18.3
2022-10-12T11:19:08.655Z,18.4
2022-10-12T11:24:14.099Z,18.4
2022-10-12T11:29:19.255Z,18.4
2022-10-12T11:34:24.699Z,18.4
2022-10-12T11:39:30.096Z,18.4
2022-10-12T11:44:35.264Z,18.3
2022-10-12T11:49:40.702Z,18.3
2022-10-12T11:54:46.107Z,18.4
2022-10-12T11:59:51.285Z,18.4
2022-10-12T12:04:56.861Z,18.4
2022-10-12T12:10:02.394Z,18.4
2022-10-12T12:15:07.809Z,18.4
2022-10-12T12:20:13.321Z,18.4
2022-10-12T12:25:18.793Z,18.4
2022-10-12T12:30:23.966Z,18.4
2022-10-12T12:35:29.518Z,18.4
2022-10-12T12:40:34.944Z,18.4
2022-10-12T12:45:39.829Z,18.4
2022-10-12T12:50:45.009Z,18.4
2022-10-12T12:56:05.029Z,18.4
2022-10-12T13:01:10.164Z,18.4
2022-10-12T13:06:15.462Z,18.4
2022-10-12T13:11:20.872Z,18.3
2022-10-12T13:16:57.523Z,18.3
2022-10-12T13:22:37.254Z,18.4
2022-10-12T13:27:42.694Z,18.3
2022-10-12T13:32:48.139Z,18.4
2022-10-12T13:37:53.593Z,18.4
2022-10-12T13:42:58.987Z,18.4
2022-10-12T13:48:04.418Z,18.4
2022-10-12T13:53:09.852Z,18.4
2022-10-12T13:58:15.285Z,18.4
2022-10-12T14:03:20.438Z,18.4
2022-10-12T14:08:25.621Z,18.4
2022-10-12T14:13:31.150Z,18.4
2022-10-12T14:18:36.299Z,18.4
2022-10-12T14:23:41.740Z,18.4
2022-10-12T14:28:47.415Z,18.5
2022-10-12T14:33:53.188Z,18.4
2022-10-12T14:39:02.290Z,18.4
2022-10-12T14:44:10.581Z,18.4
2022-10-12T14:49:16.384Z,18.4
2022-10-12T14:54:21.936Z,18.4
2022-10-12T14:59:27.442Z,18.4
2022-10-12T15:04:32.294Z,18.4
2022-10-12T15:09:37.485Z,18.4
2022-10-12T15:14:42.901Z,18.4
2022-10-12T15:19:48.044Z,18.4
2022-10-12T15:24:53.204Z,18.4
2022-10-12T15:29:58.625Z,18.3
2022-10-12T15:35:04.039Z,18.3
2022-10-12T15:40:09.341Z,18.3
2022-10-12T15:45:14.752Z,18.3
2022-10-12T15:50:20.165Z,18.3
2022-10-12T15:55:25.602Z,18.3
2022-10-12T16:00:31.042Z,18.2
2022-10-12T16:05:36.624Z,18.2
2022-10-12T16:10:41.800Z,18.2
2022-10-12T16:15:47.211Z,18.2
2022-10-12T16:20:53.930Z,18.2
2022-10-12T16:25:59.601Z,18.2
2022-10-12T16:31:05.018Z,18.2
2022-10-12T16:36:10.152Z,18.2
2022-10-12T16:41:15.344Z,18.1
2022-10-12T16:46:20.736Z,18.1
2022-10-12T16:51:25.907Z,18.1
2022-10-12T16:56:33.144Z,18.1
2022-10-12T17:01:44.179Z,18.1
2022-10-12T17:06:49.612Z,18.1
2022-10-12T17:11:55.070Z,18.1
2022-10-12T17:17:00.538Z,18.1
2022-10-12T17:22:05.697Z,18.1
2022-10-12T17:27:11.139Z,18.1
2022-10-12T17:32:16.792Z,18.1
2022-10-12T17:37:22.672Z,18.1
2022-10-12T17:42:27.575Z,18.1
2022-10-12T17:47:32.986Z,18
2022-10-12T17:52:37.863Z,18.1
2022-10-12T17:57:43.029Z,18.1
2022-10-12T18:02:48.576Z,18
2022-10-12T18:07:53.981Z,18.1
2022-10-12T18:12:59.525Z,18.1
2022-10-12T18:18:04.936Z,18.1
2022-10-12T18:23:10.066Z,18.1
2022-10-12T18:28:15.604Z,18.1
2022-10-12T18:33:21.131Z,18.1
2022-10-12T18:38:26.555Z,18.1
2022-10-12T18:43:31.832Z,18.1
2022-10-12T18:48:37.240Z,18
2022-10-12T18:53:42.654Z,18
2022-10-12T18:58:48.109Z,18.1
2022-10-12T19:03:53.542Z,18
2022-10-12T19:08:58.687Z,18
2022-10-12T19:14:04.233Z,18
2022-10-12T19:19:09.657Z,18
2022-10-12T19:24:15.071Z,18
2022-10-12T19:29:20.699Z,18
2022-10-12T19:34:26.248Z,17.9
2022-10-12T19:39:31.150Z,17.9
2022-10-12T19:44:36.307Z,17.9
2022-10-12T19:49:45.153Z,18
2022-10-12T19:54:50.427Z,17.9
2022-10-12T19:59:55.346Z,17.9
2022-10-12T20:05:00.893Z,17.9
2022-10-12T20:10:06.047Z,17.9
2022-10-12T20:15:11.497Z,17.9
2022-10-12T20:20:16.906Z,17.9
2022-10-12T20:25:22.333Z,17.9
2022-10-12T20:30:27.508Z,17.9
2022-10-12T20:35:32.912Z,17.9
2022-10-12T20:40:38.382Z,17.9
2022-10-12T20:45:43.614Z,18
2022-10-12T20:50:49.101Z,17.9
2022-10-12T20:55:54.235Z,17.9
2022-10-12T21:00:59.420Z,17.9
2022-10-12T21:06:04.903Z,17.9
2022-10-12T21:11:10.345Z,17.9
2022-10-12T21:16:15.415Z,17.9
2022-10-12T21:21:20.826Z,17.9
2022-10-12T21:26:25.967Z,17.9
2022-10-12T21:31:32.495Z,17.9
2022-10-12T21:36:38.229Z,17.9
2022-10-12T21:41:43.099Z,17.9
2022-10-12T21:46:48.541Z,17.9
2022-10-12T21:51:53.969Z,17.9
2022-10-12T21:56:59.097Z,17.8
2022-10-12T22:02:04.569Z,17.9
2022-10-12T22:07:09.965Z,17.9
2022-10-12T22:12:15.286Z,17.9
2022-10-12T22:17:21.089Z,17.9
2022-10-12T22:22:26.500Z,17.9
2022-10-12T22:27:31.648Z,17.8
2022-10-12T22:32:36.613Z,17.9
2022-10-12T22:37:42.013Z,17.9
2022-10-12T22:42:47.428Z,17.9
2022-10-12T22:47:52.571Z,17.9
2022-10-12T22:52:58.000Z,17.9
2022-10-12T22:58:03.132Z,17.9
2022-10-12T23:03:08.038Z,17.9
2022-10-12T23:08:13.422Z,17.9
2022-10-12T23:13:18.839Z,17.9
2022-10-12T23:18:24.037Z,17.9
2022-10-12T23:23:29.470Z,17.9
2022-10-12T23:28:34.653Z,17.9
2022-10-12T23:33:39.976Z,17.9
2022-10-12T23:38:45.365Z,17.9
2022-10-12T23:43:50.783Z,18
2022-10-12T23:48:56.212Z,17.9
2022-10-12T23:54:01.593Z,17.9
2022-10-12T23:59:07.003Z,18
